sensor_id;sensor_type;location;lat;lon;timestamp;pressure;altitude;pressure_sealevel;temperature;humidity
63665;BME280;49820;33.966;73.390;2023-05-02T02:50:49;78771.13;;;9.46;100.00
63665;BME280;49820;33.966;73.390;2023-05-02T03:05:53;78782.34;;;10.15;100.00
63665;BME280;49820;33.966;73.390;2023-05-02T03:08:23;78768.84;;;9.92;100.00
63665;BME280;49820;33.966;73.390;2023-05-02T03:10:52;78782.84;;;9.92;100.00
63665;BME280;49820;33.966;73.390;2023-05-02T03:13:22;78760.00;;;10.00;100.00
63665;BME280;49820;33.966;73.390;2023-05-02T03:18:27;78784.97;;;10.19;100.00
63665;BME280;49820;33.966;73.390;2023-05-02T03:20:56;78793.69;;;10.46;100.00
63665;BME280;49820;33.966;73.390;2023-05-02T03:23:26;78787.06;;;10.45;100.00
63665;BME280;49820;33.966;73.390;2023-05-02T03:25:55;78765.59;;;10.20;100.00
63665;BME280;49820;33.966;73.390;2023-05-02T03:28:25;78772.50;;;10.07;100.00
63665;BME280;49820;33.966;73.390;2023-05-02T03:30:55;78789.44;;;10.28;100.00
63665;BME280;49820;33.966;73.390;2023-05-02T03:57:38;78804.03;;;10.31;100.00
63665;BME280;49820;33.966;73.390;2023-05-02T04:00:11;78807.47;;;10.28;100.00
63665;BME280;49820;33.966;73.390;2023-05-02T04:28:31;78828.91;;;9.91;100.00
63665;BME280;49820;33.966;73.390;2023-05-02T04:45:31;78842.88;;;10.26;100.00
63665;BME280;49820;33.966;73.390;2023-05-02T04:48:01;78857.06;;;10.19;100.00
63665;BME280;49820;33.966;73.390;2023-05-02T05:00:20;78847.06;;;10.15;100.00
63665;BME280;49820;33.966;73.390;2023-05-02T06:04:35;78855.66;;;8.78;100.00
63665;BME280;49820;33.966;73.390;2023-05-02T06:07:04;78832.47;;;8.70;100.00
63665;BME280;49820;33.966;73.390;2023-05-02T06:09:33;78825.81;;;8.71;100.00
63665;BME280;49820;33.966;73.390;2023-05-02T06:24:58;78847.66;;;8.78;100.00
63665;BME280;49820;33.966;73.390;2023-05-02T06:27:28;78848.84;;;8.87;100.00
63665;BME280;49820;33.966;73.390;2023-05-02T06:44:33;78844.84;;;8.88;100.00
63665;BME280;49820;33.966;73.390;2023-05-02T06:58:55;78833.00;;;8.79;100.00
63665;BME280;49820;33.966;73.390;2023-05-02T07:01:25;78852.03;;;8.96;100.00
63665;BME280;49820;33.966;73.390;2023-05-02T07:10:23;78819.69;;;8.79;100.00
63665;BME280;49820;33.966;73.390;2023-05-02T07:12:52;78848.94;;;9.20;100.00
63665;BME280;49820;33.966;73.390;2023-05-02T07:15:22;78813.75;;;9.13;100.00
63665;BME280;49820;33.966;73.390;2023-05-02T07:17:50;78841.34;;;9.70;100.00
63665;BME280;49820;33.966;73.390;2023-05-02T07:20:20;78820.41;;;9.82;100.00
63665;BME280;49820;33.966;73.390;2023-05-02T07:22:49;78812.88;;;9.91;100.00
63665;BME280;49820;33.966;73.390;2023-05-02T07:34:28;78821.78;;;10.12;100.00
63665;BME280;49820;33.966;73.390;2023-05-02T07:37:00;78801.84;;;10.09;100.00
63665;BME280;49820;33.966;73.390;2023-05-02T07:39:32;78819.19;;;10.41;100.00
63665;BME280;49820;33.966;73.390;2023-05-02T07:42:01;78806.66;;;10.62;100.00
63665;BME280;49820;33.966;73.390;2023-05-02T07:44:31;78797.56;;;10.80;100.00
63665;BME280;49820;33.966;73.390;2023-05-02T07:47:04;78800.56;;;11.22;100.00
63665;BME280;49820;33.966;73.390;2023-05-02T07:49:33;78809.69;;;11.58;100.00
63665;BME280;49820;33.966;73.390;2023-05-02T07:52:04;78810.44;;;11.54;100.00
63665;BME280;49820;33.966;73.390;2023-05-02T07:54:33;78806.84;;;11.39;100.00
63665;BME280;49820;33.966;73.390;2023-05-02T07:57:03;78775.56;;;11.33;100.00
63665;BME280;49820;33.966;73.390;2023-05-02T07:59:35;78793.47;;;11.64;100.00
63665;BME280;49820;33.966;73.390;2023-05-02T08:02:04;78732.28;;;11.27;100.00
63665;BME280;49820;33.966;73.390;2023-05-02T08:04:33;78792.16;;;11.63;100.00
63665;BME280;49820;33.966;73.390;2023-05-02T08:07:02;78793.53;;;11.62;100.00
63665;BME280;49820;33.966;73.390;2023-05-02T08:09:32;78789.41;;;11.67;100.00
63665;BME280;49820;33.966;73.390;2023-05-02T08:12:01;78780.59;;;11.95;100.00
63665;BME280;49820;33.966;73.390;2023-05-02T08:14:30;78769.16;;;12.21;100.00
63665;BME280;49820;33.966;73.390;2023-05-02T08:16:59;78778.31;;;12.51;100.00
63665;BME280;49820;33.966;73.390;2023-05-02T08:19:28;78775.91;;;13.30;100.00
63665;BME280;49820;33.966;73.390;2023-05-02T08:21:58;78757.88;;;13.89;100.00
63665;BME280;49820;33.966;73.390;2023-05-02T08:24:26;78761.31;;;14.25;100.00
63665;BME280;49820;33.966;73.390;2023-05-02T08:26:56;78749.19;;;15.18;100.00
63665;BME280;49820;33.966;73.390;2023-05-02T08:29:25;78747.81;;;15.88;100.00
63665;BME280;49820;33.966;73.390;2023-05-02T08:31:54;78746.63;;;16.64;100.00
63665;BME280;49820;33.966;73.390;2023-05-02T08:34:23;78758.94;;;16.76;100.00
63665;BME280;49820;33.966;73.390;2023-05-02T08:36:53;78743.56;;;16.41;100.00
63665;BME280;49820;33.966;73.390;2023-05-02T08:39:24;78750.97;;;17.03;100.00
63665;BME280;49820;33.966;73.390;2023-05-02T08:41:53;78736.34;;;16.84;100.00
63665;BME280;49820;33.966;73.390;2023-05-02T08:44:23;78685.31;;;16.00;100.00
63665;BME280;49820;33.966;73.390;2023-05-02T08:46:52;78749.75;;;15.20;98.70
63665;BME280;49820;33.966;73.390;2023-05-02T08:49:24;78724.84;;;15.03;100.00
63665;BME280;49820;33.966;73.390;2023-05-02T08:51:54;78719.50;;;14.49;100.00
63665;BME280;49820;33.966;73.390;2023-05-02T08:54:24;78723.56;;;15.02;100.00
63665;BME280;49820;33.966;73.390;2023-05-02T08:56:55;78737.69;;;14.84;100.00
63665;BME280;49820;33.966;73.390;2023-05-02T08:59:26;78729.66;;;15.01;100.00
63665;BME280;49820;33.966;73.390;2023-05-02T09:02:11;78734.38;;;14.27;100.00
63665;BME280;49820;33.966;73.390;2023-05-02T09:04:40;78729.59;;;14.30;100.00
63665;BME280;49820;33.966;73.390;2023-05-02T09:07:11;78729.28;;;14.19;100.00
63665;BME280;49820;33.966;73.390;2023-05-02T09:09:40;78730.03;;;14.18;100.00
63665;BME280;49820;33.966;73.390;2023-05-02T09:12:08;78726.81;;;14.13;100.00
63665;BME280;49820;33.966;73.390;2023-05-02T09:14:38;78712.28;;;13.48;100.00
63665;BME280;49820;33.966;73.390;2023-05-02T09:17:14;78719.56;;;13.51;100.00
63665;BME280;49820;33.966;73.390;2023-05-02T09:19:43;78731.78;;;13.67;100.00
63665;BME280;49820;33.966;73.390;2023-05-02T09:22:22;78724.03;;;13.78;100.00
63665;BME280;49820;33.966;73.390;2023-05-02T09:24:54;78721.00;;;13.88;100.00
63665;BME280;49820;33.966;73.390;2023-05-02T09:27:27;78701.38;;;13.72;100.00
63665;BME280;49820;33.966;73.390;2023-05-02T09:30:32;78716.59;;;13.99;100.00
63665;BME280;49820;33.966;73.390;2023-05-02T09:33:01;78689.88;;;13.55;100.00
63665;BME280;49820;33.966;73.390;2023-05-02T09:35:52;78693.81;;;13.19;100.00
63665;BME280;49820;33.966;73.390;2023-05-02T09:38:23;78702.16;;;12.88;100.00
63665;BME280;49820;33.966;73.390;2023-05-02T09:40:55;78707.53;;;13.09;100.00
63665;BME280;49820;33.966;73.390;2023-05-02T09:43:25;78688.81;;;13.07;100.00
63665;BME280;49820;33.966;73.390;2023-05-02T09:48:55;78704.56;;;12.75;100.00
63665;BME280;49820;33.966;73.390;2023-05-02T09:51:38;78705.06;;;12.59;100.00
63665;BME280;49820;33.966;73.390;2023-05-02T09:54:07;78632.88;;;12.11;100.00
63665;BME280;49820;33.966;73.390;2023-05-02T09:56:54;78695.97;;;12.50;100.00
63665;BME280;49820;33.966;73.390;2023-05-02T09:59:24;78669.34;;;12.23;100.00
63665;BME280;49820;33.966;73.390;2023-05-02T10:02:05;78668.56;;;12.27;100.00
63665;BME280;49820;33.966;73.390;2023-05-02T10:04:37;78697.44;;;12.01;100.00
63665;BME280;49820;33.966;73.390;2023-05-02T10:07:08;78687.31;;;11.81;100.00
63665;BME280;49820;33.966;73.390;2023-05-02T10:09:42;78692.22;;;11.97;100.00
63665;BME280;49820;33.966;73.390;2023-05-02T10:12:17;78671.16;;;11.60;100.00
63665;BME280;49820;33.966;73.390;2023-05-02T10:14:59;78672.47;;;11.61;100.00
63665;BME280;49820;33.966;73.390;2023-05-02T10:17:32;78690.56;;;11.36;100.00
63665;BME280;49820;33.966;73.390;2023-05-02T10:20:04;78683.41;;;11.28;100.00
63665;BME280;49820;33.966;73.390;2023-05-02T10:22:34;78646.81;;;10.98;100.00
63665;BME280;49820;33.966;73.390;2023-05-02T10:25:04;78683.69;;;11.18;100.00
63665;BME280;49820;33.966;73.390;2023-05-02T10:27:34;78679.38;;;11.29;100.00
63665;BME280;49820;33.966;73.390;2023-05-02T10:30:05;78679.00;;;11.19;100.00
63665;BME280;49820;33.966;73.390;2023-05-02T10:32:35;78668.44;;;10.88;100.00
63665;BME280;49820;33.966;73.390;2023-05-02T10:35:06;78653.16;;;10.59;100.00
63665;BME280;49820;33.966;73.390;2023-05-02T10:37:37;78664.25;;;10.95;100.00
63665;BME280;49820;33.966;73.390;2023-05-02T10:40:11;78674.69;;;11.30;100.00
63665;BME280;49820;33.966;73.390;2023-05-02T10:42:46;78679.03;;;11.66;100.00
63665;BME280;49820;33.966;73.390;2023-05-02T10:45:34;78672.75;;;11.99;100.00
63665;BME280;49820;33.966;73.390;2023-05-02T10:48:17;78664.22;;;11.92;100.00
63665;BME280;49820;33.966;73.390;2023-05-02T10:50:49;78677.75;;;11.88;100.00
63665;BME280;49820;33.966;73.390;2023-05-02T10:56:12;78674.78;;;11.75;100.00
63665;BME280;49820;33.966;73.390;2023-05-02T10:58:44;78675.91;;;11.58;100.00
63665;BME280;49820;33.966;73.390;2023-05-02T11:04:07;78665.00;;;11.66;100.00
63665;BME280;49820;33.966;73.390;2023-05-02T11:11:55;78664.31;;;11.90;100.00
63665;BME280;49820;33.966;73.390;2023-05-02T11:22:32;78649.63;;;11.64;100.00
63665;BME280;49820;33.966;73.390;2023-05-02T11:25:02;78638.16;;;11.45;100.00
63665;BME280;49820;33.966;73.390;2023-05-02T11:30:06;78658.97;;;11.42;100.00
63665;BME280;49820;33.966;73.390;2023-05-02T11:35:21;78638.91;;;11.19;100.00
63665;BME280;49820;33.966;73.390;2023-05-02T11:38:05;78658.81;;;11.24;100.00
63665;BME280;49820;33.966;73.390;2023-05-02T11:40:34;78657.03;;;11.39;100.00
63665;BME280;49820;33.966;73.390;2023-05-02T11:43:14;78656.88;;;11.45;100.00
63665;BME280;49820;33.966;73.390;2023-05-02T11:45:44;78632.13;;;11.22;100.00
63665;BME280;49820;33.966;73.390;2023-05-02T11:48:16;78651.25;;;11.30;100.00
63665;BME280;49820;33.966;73.390;2023-05-02T11:50:54;78670.22;;;11.22;100.00
63665;BME280;49820;33.966;73.390;2023-05-02T11:53:25;78648.66;;;11.03;100.00
63665;BME280;49820;33.966;73.390;2023-05-02T11:55:59;78661.56;;;10.95;100.00
63665;BME280;49820;33.966;73.390;2023-05-02T11:58:30;78675.00;;;10.93;100.00
63665;BME280;49820;33.966;73.390;2023-05-02T12:25:30;78672.81;;;10.99;100.00
63665;BME280;49820;33.966;73.390;2023-05-02T12:28:02;78688.25;;;10.97;100.00
